SBPR

Details ICAO SBPR
Name CARLOS PRATES
Region Brazil
Timezone America/Sao_Paulo (UTC-3.0)
Plans Departing 13
Arriving 6
Stats Elevation 3,044 ft / 928 m (AMSL)
Location -19.909167° -43.990834°
Runways 1
Magnetic Variation 22.821° W
Sunrise 2018-05-20 09:20:24 UTC / 2018-05-20 06:20:24 Local
Sunset 2018-05-20 20:27:26 UTC / 2018-05-20 17:27:26 Local
Advertisement - Login to hide

Runways

ID Width Length Bearing (true) Bearing (mag) Surface Threshold Offset Overrun Length
09 59 ft / 18 m 3,034 ft / 925 m 66.87° 89.69° Asphalt 0 ft / 0 m 0 ft / 0 m
27 59 ft / 18 m 3,034 ft / 925 m 246.86° 269.68° Asphalt 0 ft / 0 m 0 ft / 0 m

Map

Weather


0- 5 10 15 20 25 30 35+ Temperature / ° C

Clouds and Precipitation
Forecast for 2018-05-20 12:00 UTC. Updated 3 hours ago

Ground ~20,000 ft ~40,000 ft Winds

METAR

SBPR 201400Z 22009KT 9999 SCT030 18/12 Q1017

TAF

Not found

Frequencies

Recorded 127.45 MHz BELO HORIZONTE ATIS
Tower 125.85 MHz RDO
Warning: Do not use this data for real-world aviation or navigation. No guarantee of current accuracy is given.